Timeline UpdatesTrip UpdatesNews PostsPvt PostsTravel TipsAdmin PostsConv PostsFollowed PostsChat RequestsBlog PostsPNR Posts

Disclaimer
Search
 
 
Sat Aug 23, 2014 11:03:55 ISTHomeTrainsΣChainsAtlasPNRForumGalleryNewsFAQTripsMembersLoginFeedback
No Recent News for this Train
Other Trains in the News **new
Latest...
.
Fri Dec 13, 2013 (03:40PM)
⇐ Return Journey: Train# 12833

12834/Howrah - Ahmedabad SF Express

Jul 14 2014 (10:03PM)
Change Departure Station:
Change Arrival Station:
Post a Train Travel TipPost a Train Travel Tip **new
Post a Comment/Question/Picture/VideoPost a Comment/Question/Picture/Video
Pantry/Catering
✓ Pantry Car Avbl
✓ Catering Avbl
RSA - Rake Sharing
Rake/Coach Composition
LOCO(SRC WAP 4E)-SLR-GEN-S1-S2-S3-S4-S5-S6-S7-S8-S9-S10-S11-S12-PC-S13-B1-B2-A1-A2-GEN-SLR
Loco
Loco: SRC WAP 4 ... Entry# 289462
News    PNR    Forum    Time-Table    Availability    Fare Chart    Map    Arr/Dep History    Trips    Gallery    ΣChains    X/O    Timeline    
Travel Time: 3h 48m    5 halts    Distance: 230 km    Avg Speed: 60 km/hr
Type: SuperFast
Zone: SER/South Eastern
Departs @ 09:12 (Avg 27m late)
Platform# 2
SMTWTFS
Surat/ST 
Arrives @ 13:00 (Avg 35m late)
Platform# 6
SMTWTFS
Ahmedabad Junction/ADI 

5 halts. 46 intermediate Stations between Surat and Ahmedabad Junction

Show ALL intermediate Stations  Show Old Time-Table

#CodeStation NameX/OArrivesAvgDepartsAvgHaltPFDay#KmSpeedElevZoneAddress
1HWHKolkata Howrah Junction (23)  -23:55+5221-1858.66410mERHowrah 711101, West Bengal
2MCAMecheda (6)  00:50+1000:52+182m--2-1800.33510mSERdist - purba Medinipur, West Bengal
3PKUPanskura Junction (6)X  01:13+901:15+112m--2-1787.9599mSERPanskura, West Bengal
4KGPKharagpur Junction (10)  02:00+902:05+105m32-1743.57742mSERKharagpur, West Bengal
5TATATatanagar Junction (5)XO  03:50+1603:55+165m--2-1608.568164mSER91-657-2423026, Jharkhand
6CKPChakradharpur (3)  04:50+1604:57+177m12-1546.278235mSERChakradharpur (West Singhbhum), Jharkhand
7ROURourkela Junction (5)X  06:15+1906:30+1915m32-1445.162198mSERRourkela, Odisha
8GPRaj Gangpur (3)  06:59+2007:00+221m12-1415.372237mSERRaj Ganpur, Odisha
9BMBBamra (3)  07:29+2407:30+251m--2-1380.758259mSERBamra PH : 06642-229268, Odisha
10JSGJharsuguda Junction (5)X  08:08+2108:10+252m--2-1344.288236mSERJharsuguda, Odisha
11BRJNBrajrajnagar  08:18+3108:20+312m--2-1332.567212mSECRBrajrajnagar, Odisha
12BPHBelpahar  08:28+3208:30+322m--2-1323.685235mSECRBelpahar, Odisha
13RIGRaigarh (3)  09:06+3809:11+375m--2-1272.693220mSECRRaigarh, Chhattisgarh
14KHSKharsia  09:33+4809:35+482m--2-1238.691259mSECRNational Highway 200, Chhattisgarh
15BUABaradwarX  09:55+5609:57+572m--2-1208.355256mSECRJanjgir-Champa, Chhattisgarh
16CPHChampa Junction (3)X  10:14+5510:19+525m32-1192.872264mSECRNational Highway 200 (07819-245767), Chhattisgarh
17NIANailaX  10:28+5510:30+552m--2-1182.075273mSECRJanjgir, Chhattisgarh
18AKTAkaltara (4)X  10:42+5610:44+572m--2-1167.029284mSECRDist. Janjgir Champa, Chhattisgarh
19BSPBilaspur Junction (8)X  11:40+2611:55+3515m22-1139.877271mSECRBilaspur, Chhattisgarh
20BYTBhatapara (4)X  12:31+3912:33+402m22-1093.687270mSECRBanjari Road, Chhattisgarh
21TLDTilda (3)X  12:51+4012:53+422m--2-1067.655291mSECRBanjari Rd, Chhattisgarh
22RRaipur Junction (6)X  13:35+4113:45+4010m52-1029.480297mSECRRaipur, Chhattisgarh
23BPHBBhilai Power House (3)XO  14:06+1814:08+182m12-1001.417312mSECRBhilai, Chhattisgarh
24DURGDurg Junction (6)X  14:40+3014:45+315m42-992.487299mSECRPh: 91-788-2322059, Chhattisgarh
25RJNRaj Nandgaon (3)  15:06+3815:08+382m--2-962.086313mSECRRajnandgaon, Chhattisgarh
26DGGDongargarh (2)  15:30+4415:32+462m12-930.476353mSECRDongargarh, Chhattisgarh
27AGNAmgaon (2)X  16:12+5316:14+542m--2-880.047317mSECRGondia, Maharashtra
28GGondia Junction (7)X  16:43+4416:48+445m22-857.292316mSECRGondia 441601, Maharashtra
29TROTirora (3)  17:07+4917:09+492m--2-827.972282mSECRDist Gondiya, Maharashtra
30TMRTumsar Road (3)  17:26+4617:28+472m--2-807.572267mSECRBhandara, Maharashtra
31BRDBhandara Road (2)X  17:43+4817:45+482m22-789.693266mSECRState Highway 252, Maharashtra
32KPKamptee (3)X  18:16+5018:18+502m--2-741.620290mSECRMH 441001, Maharashtra
33NGPNagpur Junction (8)X  19:00+3719:10+4110m32-727.320314mCRNagpur 440001, Maharashtra
34AJNIAjni (3)X  19:19+4619:20+471m32-724.371310mCRNagpur 440003, Maharashtra
35WRWardha Junction (4)X  20:24+4220:27+423m12-648.481289mCRWardha 442001, Maharashtra
36PLOPulgaon Junction (3)  20:49+4520:50+461m22-618.967273mCRPulgaon, Maharashtra
37DMNDhamangaon (2)  21:08+4521:09+461m--2-598.967300mCRDhamangaon, Maharashtra
38CNDChandur (2)X  21:24+4721:25+471m--2-582.238331mCRAmravati Distt, Maharashtra
39BDBadnera Junction (4)X  22:10+3622:15+375m12-553.586335mCRBadnera (Amravati) 444701, Maharashtra
40MZRMurtizapur (3)X  22:44+4422:45+481m--2-511.774303mCRMurtajapur, Maharashtra
41AKAkola Junction (7)  23:15+5023:20+515m12-474.593284mCRAkola-444001, Maharashtra
42SEGShegaon (2)  23:44+5523:45+561m22-437.368281mCRShegaon 444203, Maharashtra
43JMJalamb Junction (3)  23:56+5423:58+562m12-424.967259mCRJalamb, Maharashtra
44NNNandura  00:09+5500:10+591m13-412.770267mCRNandura, Maharashtra
45MKUMalkapur (2)  00:34+5600:35+581m23-384.850252mCRMalkapur, Maharashtra
46BSLBhusaval Junction (8)XO  01:35+4801:45+5010m43-334.941208mCRBhusaval 425201, Maharashtra
47JLJalgaon Junction (4)X  02:20+4002:25+415m23-310.851213mCRJalgaon 425001, Maharashtra
48DXGDharangaon (2)  03:00+4903:01+501m13-281.151217mWRDharangaon, Maharashtra
49ANAmalner (2)  03:30+4503:33+443m13-256.273188mWRAmalner, Maharashtra
50SNKSindkheda (1)  04:07+5004:08+511m13-214.645178mWRState Highway 11, Maharashtra
51DDEDondaicha (2)X  04:34+4704:35+481m23-195.249163mWRDondaicha, Maharashtra
52NDBNandurbar (3)  05:17+4305:25+428m13-160.850203mWRNandurbar, Maharashtra
53NWUNavapur (2)  06:35+3406:37+372m--3-102.955124mWRNavapur, Gujarat
54VYAVyara (2)  07:23+3407:25+342m13-61.06090mWRVyara, Gujarat
55MIDMadhi (1)  07:40+3707:42+372m13-46.05945mWRMadhi, Gujarat
56BIYBardoli (2)X  07:57+3907:59+392m--3-31.23735mWRNear Bardoli Sugar Factory Bardoli, Gujarat
57UDNUdhna Junction (3)XO  08:43+2908:45+312m13-4.01416mWRUdhna 394210, Gujarat
58ST»Surat (4)»X  09:02+2809:12+2710m230.08119mWRSurat 395001, Gujarat
59BHBharuch Junction (5)X  09:56+4209:58+442m3359.37419mWRBharuch, Gujarat
60BRCVadodara Junction (7)X  10:55+5111:00+525m33129.87236mWRVadodara 390005, Gujarat
61ANNDAnand Junction (6)  11:30+5011:32+512m23165.65344mWRAnand, Gujarat
62NDNadiad Junction (4)X  11:53+4211:55+422m--3184.05837mWRNadiad, Gujarat
63MANManinagar (2)X  12:39+1012:41+102m13226.41050mWRAhmadabad, Gujarat
64ADI•Ahmedabad Junction (12)•  13:00+35-63229.6-51mWRAhmedabad, Gujarat
Scroll to Top
Scroll to Bottom